Le Mans-Arnage Airport

Airport
ICAO code: 
LFRM
IATA Code: 
LME
Summary
ICAO Region: 
EUR
Territory: 
Location: 
, Pays de la Loire
Serving: 
Le Mans
Elevation: 
194 ft
Coordinates: 
Aerial View: 
47° 56' 55" N, 0° 12' 6.001" E
Metar
Observation
LFRM 241700Z AUTO 14004KT 090V180 CAVOK 04/01 Q1031 BECMG 3000 BR BKN003
Station
Le Mans
Date/Time
2022-01-24 17:00:00
Wind direction
140°
Wind speed
04 kts
Lowest cloud amount
broken clouds
Temperature
4°C
Dew point
1°C
Humidity
80%
QNH
1031 hPa
Weather condition
n/a

Runways

Designator Length Width Surface Rops
2/20 1420 30 ASP No/No
Airport map: 
Aerial View: 

SKYbrary Partners:

Safety knowledge contributed by: